Time;durP1;ratioP1;P1;durP2;ratioP2;P2;SDS_P1;SDS_P2;PMS_P1;PMS_P2;Temp;Humidity;BMP_temperature;BMP_pressure;BME280_temperature;BME280_humidity;BME280_pressure;Samples;Min_cycle;Max_cycle;Signal;HPM_P1;HPM_P2
2021/04/03 00:00:21;;;;;;;9.75;1.80;;;6.10;99.90;;;;;;5031559;28;20026;-90
2021/04/03 00:02:47;;;;;;;14.20;1.92;;;6.10;99.90;;;;;;5034579;28;20056;-88
2021/04/03 00:05:14;;;;;;;15.07;1.98;;;6.00;99.90;;;;;;5033614;28;20024;-87
2021/04/03 00:07:40;;;;;;;7.47;1.45;;;6.00;99.90;;;;;;5034253;28;20112;-87
2021/04/03 00:10:09;;;;;;;11.65;1.80;;;6.00;99.90;;;;;;5034147;28;20124;-87
2021/04/03 00:12:34;;;;;;;7.00;1.58;;;6.00;99.90;;;;;;5034171;28;20434;-88
2021/04/03 00:15:01;;;;;;;13.40;2.53;;;6.00;99.90;;;;;;5052552;28;20029;-87
2021/04/03 00:17:26;;;;;;;11.43;1.63;;;6.00;99.80;;;;;;5052517;28;20025;-88
2021/04/03 00:19:54;;;;;;;12.10;1.73;;;6.00;99.90;;;;;;5034878;28;20470;-88
2021/04/03 00:22:22;;;;;;;9.20;2.20;;;6.10;99.80;;;;;;5035128;28;20021;-88
2021/04/03 00:24:47;;;;;;;12.30;1.75;;;6.10;99.80;;;;;;5052813;28;20100;-89
2021/04/03 00:27:13;;;;;;;7.50;1.33;;;6.10;99.80;;;;;;5052213;28;20132;-87
2021/04/03 00:29:38;;;;;;;9.05;1.60;;;6.10;99.80;;;;;;5034022;28;20482;-88
2021/04/03 00:32:04;;;;;;;11.57;1.75;;;6.10;99.70;;;;;;5032517;28;20037;-88
2021/04/03 00:34:30;;;;;;;9.10;1.70;;;6.10;99.70;;;;;;5033252;28;20098;-89
2021/04/03 00:36:55;;;;;;;10.73;1.77;;;6.10;99.70;;;;;;5034583;28;20040;-89
2021/04/03 00:39:21;;;;;;;9.48;2.10;;;6.10;99.70;;;;;;5055402;28;20028;-87
2021/04/03 00:41:46;;;;;;;10.02;1.75;;;6.10;99.70;;;;;;5054580;28;20028;-88
2021/04/03 00:44:13;;;;;;;11.75;2.13;;;6.10;99.60;;;;;;5041221;28;20033;-89
2021/04/03 00:46:39;;;;;;;9.20;1.50;;;6.10;99.60;;;;;;5035083;28;20486;-88
2021/04/03 00:49:06;;;;;;;11.07;1.67;;;6.10;99.60;;;;;;5034646;28;20025;-88
2021/04/03 00:51:31;;;;;;;12.05;1.83;;;6.10;99.60;;;;;;5035122;28;20221;-89
2021/04/03 00:53:58;;;;;;;6.88;1.42;;;6.10;99.60;;;;;;5034621;28;20490;-88
2021/04/03 00:56:24;;;;;;;9.13;1.70;;;6.10;99.60;;;;;;5034807;28;20443;-87
2021/04/03 00:58:49;;;;;;;10.27;2.15;;;6.10;99.60;;;;;;5052126;28;20036;-88
2021/04/03 01:01:16;;;;;;;11.40;2.17;;;6.20;99.60;;;;;;5033756;28;20033;-87
2021/04/03 01:03:42;;;;;;;8.45;1.65;;;6.10;99.60;;;;;;5033035;28;20025;-88
2021/04/03 01:06:08;;;;;;;12.52;1.45;;;6.10;99.60;;;;;;5027125;28;20730;-87
2021/04/03 01:08:34;;;;;;;11.75;2.03;;;6.10;99.60;;;;;;5005972;28;20036;-87
2021/04/03 01:11:01;;;;;;;10.82;2.33;;;6.10;99.60;;;;;;5018986;28;20025;-88
2021/04/03 01:13:59;;;;;;;11.55;2.08;;;6.20;99.60;;;;;;5024713;28;20136;-88
2021/04/03 01:16:48;;;;;;;7.82;1.70;;;6.20;99.60;;;;;;5024462;28;20045;-87
2021/04/03 01:19:46;;;;;;;11.90;2.38;;;6.20;99.50;;;;;;5026818;28;20490;-87
2021/04/03 01:22:17;;;;;;;14.48;2.13;;;6.20;99.40;;;;;;5019772;28;20037;-89
2021/04/03 01:25:14;;;;;;;10.90;1.70;;;6.10;99.30;;;;;;5017298;28;20025;-88
2021/04/03 01:28:07;;;;;;;11.63;2.03;;;6.10;99.60;;;;;;5032936;28;20112;-85
2021/04/03 01:30:34;;;;;;;12.55;2.20;;;6.10;99.30;;;;;;5016346;28;20076;-88
2021/04/03 01:33:06;;;;;;;7.68;1.45;;;6.10;99.40;;;;;;5013639;28;20041;-88
2021/04/03 01:35:48;;;;;;;9.23;1.90;;;6.10;99.40;;;;;;5029727;28;20029;-86
2021/04/03 01:38:34;;;;;;;9.27;1.40;;;6.10;99.30;;;;;;5017389;28;20487;-88
2021/04/03 01:41:01;;;;;;;7.47;1.60;;;6.10;99.40;;;;;;5027109;28;20479;-88
2021/04/03 01:43:34;;;;;;;9.75;1.55;;;6.10;99.40;;;;;;5016000;28;20080;-88
2021/04/03 01:46:01;;;;;;;7.90;1.60;;;6.10;99.40;;;;;;5034612;28;20116;-87
2021/04/03 01:48:28;;;;;;;8.55;1.50;;;6.20;99.40;;;;;;5016518;28;20025;-88
2021/04/03 01:50:54;;;;;;;6.07;1.20;;;6.20;99.60;;;;;;5016260;28;20045;-87
2021/04/03 01:53:21;;;;;;;7.00;1.40;;;6.20;99.30;;;;;;5015535;28;20076;-87
2021/04/03 01:55:47;;;;;;;10.50;2.03;;;6.20;99.40;;;;;;5016415;28;20444;-88
2021/04/03 01:58:13;;;;;;;7.15;1.48;;;6.20;99.60;;;;;;5033879;28;20028;-88
2021/04/03 02:00:41;;;;;;;10.32;1.98;;;6.20;99.20;;;;;;5015969;28;20041;-88
2021/04/03 02:03:08;;;;;;;11.70;1.77;;;6.20;99.20;;;;;;5048135;28;20047;-87
2021/04/03 02:05:35;;;;;;;8.50;1.90;;;6.20;99.50;;;;;;5073681;28;20027;-87
2021/04/03 02:08:01;;;;;;;9.80;1.42;;;6.10;99.20;;;;;;5045534;28;20025;-87
2021/04/03 02:10:28;;;;;;;11.32;1.77;;;6.10;99.20;;;;;;5035800;28;20094;-86
2021/04/03 02:12:55;;;;;;;12.73;1.90;;;6.20;99.20;;;;;;5035270;28;20029;-86
2021/04/03 02:15:23;;;;;;;12.80;2.17;;;6.10;99.20;;;;;;5053536;28;20230;-87
2021/04/03 02:17:50;;;;;;;13.38;2.53;;;6.20;99.20;;;;;;5053835;28;20021;-87
2021/04/03 02:20:17;;;;;;;8.80;2.20;;;6.20;99.10;;;;;;5035598;28;20024;-86
2021/04/03 02:22:43;;;;;;;8.63;1.60;;;6.20;99.20;;;;;;5035555;28;20027;-87
2021/04/03 02:25:12;;;;;;;17.05;2.42;;;6.20;99.10;;;;;;5035315;28;20028;-88
2021/04/03 02:27:38;;;;;;;8.43;1.95;;;6.20;99.00;;;;;;5035332;28;20040;-88
2021/04/03 02:30:12;;;;;;;8.23;1.73;;;6.20;99.00;;;;;;5035157;28;20115;-88
2021/04/03 02:32:55;;;;;;;11.32;2.30;;;6.20;98.90;;;;;;5035533;28;20037;-87
2021/04/03 02:35:24;;;;;;;12.03;1.80;;;6.30;98.90;;;;;;5053237;28;20052;-87
2021/04/03 02:37:57;;;;;;;11.38;1.73;;;6.20;99.00;;;;;;5034197;28;20028;-89
2021/04/03 02:40:25;;;;;;;13.55;1.60;;;6.20;98.70;;;;;;5034780;28;20068;-87
2021/04/03 02:43:03;;;;;;;9.68;1.65;;;6.20;98.50;;;;;;5052728;28;20033;-87
2021/04/03 02:45:39;;;;;;;10.55;1.98;;;6.20;98.80;;;;;;5053144;28;20029;-88
2021/04/03 02:48:16;;;;;;;9.80;1.85;;;6.10;98.50;;;;;;5052818;28;20029;-87
2021/04/03 02:50:44;;;;;;;10.10;1.80;;;6.10;98.40;;;;;;5051842;28;20017;-88
2021/04/03 02:53:13;;;;;;;12.73;1.85;;;6.10;98.50;;;;;;5052741;28;20033;-88
2021/04/03 02:55:45;;;;;;;8.93;1.90;;;6.00;98.40;;;;;;5051433;28;20029;-88
2021/04/03 02:58:14;;;;;;;9.55;1.95;;;6.00;98.40;;;;;;5051520;28;20039;-88
2021/04/03 03:00:40;;;;;;;10.60;2.10;;;5.90;98.40;;;;;;5051605;28;20025;-88
2021/04/03 03:03:09;;;;;;;9.70;2.08;;;5.90;98.50;;;;;;5069146;28;20037;-86
2021/04/03 03:05:35;;;;;;;12.15;1.83;;;5.90;98.50;;;;;;5056664;28;20511;-86
2021/04/03 03:08:03;;;;;;;11.52;2.08;;;5.90;98.50;;;;;;5049819;28;20521;-86
2021/04/03 03:10:29;;;;;;;12.13;2.05;;;5.90;98.50;;;;;;5055205;28;20028;-87
2021/04/03 03:12:57;;;;;;;10.43;1.73;;;5.80;98.50;;;;;;5038711;28;20029;-88
2021/04/03 03:15:27;;;;;;;14.20;2.42;;;5.80;98.60;;;;;;5038725;28;20088;-87
2021/04/03 03:17:55;;;;;;;10.68;1.85;;;5.90;98.70;;;;;;5055926;28;20395;-86
2021/04/03 03:20:20;;;;;;;9.80;2.15;;;5.80;98.60;;;;;;5038517;28;20056;-87
2021/04/03 03:22:46;;;;;;;10.13;1.60;;;5.80;98.70;;;;;;5038924;28;20372;-89
2021/04/03 03:25:12;;;;;;;16.73;3.15;;;5.80;98.70;;;;;;5038688;28;20032;-88
2021/04/03 03:27:41;;;;;;;12.35;2.20;;;5.80;98.60;;;;;;5038584;28;20495;-87
2021/04/03 03:30:08;;;;;;;9.32;1.92;;;5.70;98.70;;;;;;5038503;28;20040;-89
2021/04/03 03:32:35;;;;;;;13.45;2.33;;;5.60;98.80;;;;;;5055454;28;20430;-89
2021/04/03 03:35:01;;;;;;;10.93;2.20;;;5.50;98.80;;;;;;5038416;28;20112;-87
2021/04/03 03:37:27;;;;;;;12.00;1.98;;;5.40;98.90;;;;;;5043093;28;20016;-88
2021/04/03 03:39:53;;;;;;;9.75;2.05;;;5.40;99.20;;;;;;5076601;28;20077;-88
2021/04/03 03:42:20;;;;;;;7.55;2.00;;;5.30;99.10;;;;;;5058415;28;20021;-88
2021/04/03 03:44:47;;;;;;;11.50;1.88;;;5.30;99.20;;;;;;5058894;28;20025;-85
2021/04/03 03:47:12;;;;;;;13.75;2.13;;;5.20;99.30;;;;;;5076242;28;20025;-87
2021/04/03 03:49:38;;;;;;;13.57;2.38;;;5.10;99.40;;;;;;5058483;28;20028;-87
2021/04/03 03:52:05;;;;;;;15.73;3.72;;;5.10;99.50;;;;;;5076633;28;20107;-88
2021/04/03 03:54:30;;;;;;;13.15;2.10;;;5.10;99.70;;;;;;5058566;28;20116;-89
2021/04/03 03:56:56;;;;;;;15.27;2.75;;;5.00;99.70;;;;;;5076267;28;20056;-89
2021/04/03 03:59:22;;;;;;;15.02;3.10;;;5.00;99.80;;;;;;5058205;28;20020;-88
2021/04/03 04:01:47;;;;;;;16.58;3.35;;;5.00;99.90;;;;;;5058417;28;20482;-88
2021/04/03 04:04:13;;;;;;;15.32;2.72;;;5.00;99.90;;;;;;5058122;28;20107;-89
2021/04/03 04:06:38;;;;;;;14.13;2.65;;;4.90;99.90;;;;;;5058251;28;20013;-88
2021/04/03 04:09:05;;;;;;;14.07;2.33;;;4.90;99.90;;;;;;5040118;28;20031;-88
2021/04/03 04:11:30;;;;;;;11.40;2.63;;;4.90;99.90;;;;;;5037654;28;20021;-87
2021/04/03 04:13:56;;;;;;;11.82;2.28;;;4.80;99.90;;;;;;5038179;28;20513;-89
2021/04/03 04:16:22;;;;;;;11.60;2.20;;;4.80;99.90;;;;;;5038009;28;20021;-88
2021/04/03 04:18:47;;;;;;;15.00;2.80;;;4.70;99.90;;;;;;5071325;28;20056;-89
2021/04/03 04:21:13;;;;;;;12.98;2.47;;;4.70;99.90;;;;;;5038456;28;20025;-89
2021/04/03 04:23:39;;;;;;;11.05;2.05;;;4.70;99.90;;;;;;5038691;28;20116;-89
2021/04/03 04:26:04;;;;;;;13.23;2.42;;;4.70;99.90;;;;;;5038121;28;20021;-89
2021/04/03 04:28:30;;;;;;;14.77;2.20;;;4.60;99.90;;;;;;5071141;28;20467;-90
2021/04/03 04:30:56;;;;;;;15.05;2.00;;;4.60;99.90;;;;;;5038094;28;20041;-90
2021/04/03 04:33:23;;;;;;;12.70;1.90;;;4.50;99.90;;;;;;5037545;28;20029;-90
2021/04/03 04:35:49;;;;;;;11.90;1.95;;;4.50;99.90;;;;;;5037672;28;20132;-89
2021/04/03 04:38:15;;;;;;;10.13;1.92;;;4.50;99.90;;;;;;5066457;28;20093;-89
2021/04/03 04:40:40;;;;;;;12.52;2.58;;;4.40;99.90;;;;;;5057997;28;20111;-89
2021/04/03 04:43:06;;;;;;;10.13;2.60;;;4.40;99.90;;;;;;5057791;28;20024;-90
2021/04/03 04:45:32;;;;;;;11.30;1.83;;;4.40;99.90;;;;;;5057880;28;20024;-87
2021/04/03 04:47:57;;;;;;;10.95;2.05;;;4.40;99.90;;;;;;5057482;28;20066;-89
2021/04/03 04:50:23;;;;;;;13.38;2.72;;;4.30;99.90;;;;;;5057726;28;20021;-89
2021/04/03 04:52:49;;;;;;;9.43;2.15;;;4.30;99.90;;;;;;5057789;28;20077;-88
2021/04/03 04:55:14;;;;;;;15.95;2.55;;;4.30;99.90;;;;;;5057603;28;20382;-89
2021/04/03 04:57:40;;;;;;;12.00;2.20;;;4.30;99.90;;;;;;5075645;28;20524;-89
2021/04/03 05:00:06;;;;;;;11.60;2.10;;;4.30;99.90;;;;;;5057277;28;20048;-88
2021/04/03 05:02:32;;;;;;;12.27;2.15;;;4.30;99.90;;;;;;5057487;28;20033;-88
2021/04/03 05:04:58;;;;;;;14.98;2.40;;;4.30;99.90;;;;;;5057610;28;20016;-88
2021/04/03 05:07:23;;;;;;;9.90;1.90;;;4.20;99.90;;;;;;5053364;28;20583;-88
2021/04/03 05:09:49;;;;;;;11.55;2.17;;;4.20;99.90;;;;;;5037955;28;20029;-87
2021/04/03 05:12:15;;;;;;;11.95;2.70;;;4.20;99.90;;;;;;5037028;28;20107;-88
2021/04/03 05:14:40;;;;;;;11.30;2.05;;;4.20;99.90;;;;;;5037354;28;20033;-87
2021/04/03 05:17:06;;;;;;;9.45;1.90;;;4.20;99.90;;;;;;5037184;28;20107;-87
2021/04/03 05:19:32;;;;;;;13.27;1.77;;;4.30;99.90;;;;;;5054540;28;20025;-89
2021/04/03 05:21:58;;;;;;;11.02;2.00;;;4.30;99.90;;;;;;5036511;28;20036;-87
2021/04/03 05:24:23;;;;;;;10.88;2.20;;;4.40;99.90;;;;;;5036809;28;20025;-88
2021/04/03 05:26:49;;;;;;;12.38;2.42;;;4.40;99.90;;;;;;5054661;28;20676;-88
2021/04/03 05:29:15;;;;;;;8.82;1.95;;;4.50;99.90;;;;;;5053523;28;20032;-88
2021/04/03 05:31:40;;;;;;;10.52;2.55;;;4.50;99.90;;;;;;5055012;28;20037;-88
2021/04/03 05:34:06;;;;;;;13.85;2.38;;;4.60;99.90;;;;;;5054573;28;20056;-88
2021/04/03 05:36:32;;;;;;;11.45;2.50;;;4.70;99.90;;;;;;5054357;28;20028;-88
2021/04/03 05:38:57;;;;;;;10.77;1.95;;;4.80;99.90;;;;;;5053460;28;20032;-88
2021/04/03 05:41:23;;;;;;;11.95;2.10;;;4.90;99.90;;;;;;5056744;28;20012;-88
2021/04/03 05:43:51;;;;;;;19.98;2.63;;;4.90;99.90;;;;;;5074546;28;20481;-88
2021/04/03 05:46:19;;;;;;;12.15;2.33;;;5.00;99.90;;;;;;5056697;28;20607;-87
2021/04/03 05:48:45;;;;;;;13.05;2.45;;;5.00;99.90;;;;;;5056728;28;20028;-89
2021/04/03 05:51:13;;;;;;;19.13;2.67;;;5.10;99.90;;;;;;5074332;28;20099;-88
2021/04/03 05:53:39;;;;;;;14.48;3.03;;;5.10;99.90;;;;;;5056204;28;20062;-89
2021/04/03 05:56:06;;;;;;;15.40;3.65;;;5.10;99.90;;;;;;5056165;28;20401;-88
2021/04/03 05:58:31;;;;;;;12.98;2.90;;;5.20;99.90;;;;;;5073578;28;20033;-86
2021/04/03 06:00:58;;;;;;;12.80;2.90;;;5.20;99.90;;;;;;5056169;28;20119;-88
2021/04/03 06:03:24;;;;;;;22.70;3.88;;;5.30;99.90;;;;;;5055948;28;20041;-87
2021/04/03 06:05:51;;;;;;;16.13;3.60;;;5.30;99.90;;;;;;5056355;28;20020;-88
2021/04/03 06:08:17;;;;;;;16.88;3.25;;;5.40;99.90;;;;;;5062111;28;20021;-87
2021/04/03 06:11:23;;;;;;;19.20;2.90;;;5.40;99.90;;;;;;5035898;28;20021;-88
2021/04/03 06:14:01;;;;;;;23.45;3.22;;;5.40;99.90;;;;;;5035499;28;20037;-87
2021/04/03 06:16:32;;;;;;;17.92;3.35;;;5.50;99.90;;;;;;5035787;28;20028;-88
2021/04/03 06:19:17;;;;;;;16.65;3.22;;;5.50;99.90;;;;;;5035903;28;20021;-89
2021/04/03 06:21:53;;;;;;;19.58;3.05;;;5.60;99.90;;;;;;5053912;28;20048;-89
2021/04/03 06:24:25;;;;;;;21.40;4.90;;;5.60;99.90;;;;;;5035729;28;20025;-89
2021/04/03 06:27:10;;;;;;;17.88;3.45;;;5.60;99.90;;;;;;5035918;28;20112;-89
2021/04/03 06:29:38;;;;;;;21.98;3.97;;;5.70;99.90;;;;;;5053468;28;20032;-89
2021/04/03 06:32:07;;;;;;;26.58;4.85;;;5.60;99.90;;;;;;5035888;28;20037;-88
2021/04/03 06:34:45;;;;;;;20.10;3.38;;;5.70;99.90;;;;;;5052165;28;20028;-87
2021/04/03 06:37:11;;;;;;;15.30;3.28;;;5.70;99.90;;;;;;5037766;28;20017;-88
2021/04/03 06:39:56;;;;;;;16.08;3.08;;;5.80;99.90;;;;;;5055258;28;20070;-89
2021/04/03 06:42:57;;;;;;;18.10;3.10;;;5.80;99.90;;;;;;5055592;28;20013;-88
2021/04/03 06:45:34;;;;;;;16.88;4.10;;;5.90;99.90;;;;;;5020219;28;20426;-88
2021/04/03 06:48:05;;;;;;;20.98;4.30;;;5.90;99.90;;;;;;5055417;28;20021;-87
2021/04/03 06:50:42;;;;;;;20.52;3.83;;;6.00;99.90;;;;;;5072914;28;20029;-88
2021/04/03 06:53:13;;;;;;;19.23;3.58;;;6.10;99.90;;;;;;5073214;28;20033;-87
2021/04/03 06:55:41;;;;;;;24.92;4.07;;;6.20;99.90;;;;;;5055502;28;20023;-88
2021/04/03 06:58:08;;;;;;;20.77;4.10;;;6.30;99.90;;;;;;5056006;28;20036;-89
2021/04/03 07:00:35;;;;;;;19.40;3.78;;;6.30;99.90;;;;;;5055722;28;20017;-87
2021/04/03 07:03:23;;;;;;;18.77;3.85;;;6.30;99.90;;;;;;5055074;28;20113;-88
2021/04/03 07:05:50;;;;;;;27.40;4.78;;;6.40;99.90;;;;;;5055109;28;20023;-88
2021/04/03 07:08:17;;;;;;;27.02;5.22;;;6.50;99.90;;;;;;5061801;28;20028;-86
2021/04/03 07:10:42;;;;;;;24.73;4.45;;;6.50;99.90;;;;;;5035234;28;20032;-87
2021/04/03 07:13:10;;;;;;;18.20;4.18;;;6.60;99.90;;;;;;5034837;28;20399;-87
2021/04/03 07:15:36;;;;;;;24.65;5.13;;;6.60;99.90;;;;;;5035457;28;20025;-87
2021/04/03 07:18:07;;;;;;;21.95;4.07;;;6.70;99.90;;;;;;5035266;28;20438;-88
2021/04/03 07:20:34;;;;;;;18.13;3.60;;;6.70;99.90;;;;;;5034170;28;20029;-87
2021/04/03 07:23:05;;;;;;;21.63;4.85;;;6.70;99.90;;;;;;5034459;28;20497;-88
2021/04/03 07:25:43;;;;;;;25.08;4.88;;;6.80;99.90;;;;;;5033573;28;20021;-86
2021/04/03 07:28:09;;;;;;;21.27;4.35;;;6.80;99.90;;;;;;5034405;28;20029;-88
2021/04/03 07:30:35;;;;;;;20.80;4.78;;;6.90;99.90;;;;;;5034056;28;20064;-88
2021/04/03 07:33:13;;;;;;;18.25;3.88;;;7.10;99.90;;;;;;5033522;28;20045;-87
2021/04/03 07:35:51;;;;;;;17.90;3.80;;;7.20;99.90;;;;;;5034518;28;20033;-87
2021/04/03 07:38:30;;;;;;;22.02;4.15;;;7.30;99.90;;;;;;5045963;28;20466;-89
2021/04/03 07:41:00;;;;;;;21.17;4.07;;;7.40;99.90;;;;;;5054419;28;20218;-86
2021/04/03 07:43:29;;;;;;;28.02;4.53;;;7.50;99.90;;;;;;5072002;28;20033;-87
2021/04/03 07:45:56;;;;;;;17.92;4.07;;;7.50;99.90;;;;;;5051798;28;20055;-88
2021/04/03 07:48:43;;;;;;;12.23;3.35;;;7.60;99.90;;;;;;5051987;28;20027;-86
2021/04/03 07:51:12;;;;;;;17.63;4.80;;;7.70;99.80;;;;;;5053995;28;20025;-86
2021/04/03 07:53:40;;;;;;;16.98;3.95;;;7.60;99.70;;;;;;5075072;28;20083;-86
2021/04/03 07:56:07;;;;;;;22.92;5.05;;;7.70;99.70;;;;;;5057740;28;20442;-89
2021/04/03 07:58:38;;;;;;;21.02;4.50;;;7.70;99.60;;;;;;5056429;28;20344;-86
2021/04/03 08:01:06;;;;;;;19.05;3.65;;;7.80;99.50;;;;;;5054545;28;20419;-88
2021/04/03 08:03:33;;;;;;;17.92;3.83;;;7.90;99.50;;;;;;5037023;28;20461;-86
2021/04/03 08:06:02;;;;;;;18.02;3.58;;;8.10;99.40;;;;;;5037034;28;20490;-87
2021/04/03 08:08:29;;;;;;;18.88;3.85;;;8.10;99.00;;;;;;5036941;28;20033;-87
2021/04/03 08:11:13;;;;;;;18.98;3.58;;;8.00;98.80;;;;;;5037099;28;20021;-87
2021/04/03 08:13:41;;;;;;;14.35;3.47;;;7.90;98.90;;;;;;5036892;28;20025;-86
2021/04/03 08:16:09;;;;;;;17.65;3.63;;;7.90;99.00;;;;;;5055087;28;20017;-86
2021/04/03 08:18:37;;;;;;;14.02;2.80;;;8.00;99.10;;;;;;5054147;28;20025;-87
2021/04/03 08:21:04;;;;;;;19.60;3.28;;;8.10;99.20;;;;;;5055132;28;20021;-90
2021/04/03 08:23:50;;;;;;;19.83;3.97;;;8.40;98.80;;;;;;5053031;28;20029;-87
2021/04/03 08:26:17;;;;;;;18.92;3.47;;;8.60;98.40;;;;;;5052743;28;20025;-89
2021/04/03 08:28:44;;;;;;;18.23;3.00;;;8.80;98.30;;;;;;5035824;28;20025;-89
2021/04/03 08:31:21;;;;;;;17.60;4.68;;;9.00;98.10;;;;;;5035611;28;20491;-88
2021/04/03 08:33:50;;;;;;;18.13;3.28;;;9.20;97.90;;;;;;5035778;28;20498;-87
2021/04/03 08:36:19;;;;;;;18.88;3.90;;;9.40;97.70;;;;;;5059881;28;20036;-88
2021/04/03 08:38:45;;;;;;;19.13;3.65;;;9.70;97.40;;;;;;5035534;28;20812;-88
2021/04/03 08:41:20;;;;;;;19.73;3.97;;;9.70;97.10;;;;;;5036407;28;20029;-86
2021/04/03 08:43:46;;;;;;;16.42;4.00;;;9.60;96.30;;;;;;5036107;28;20021;-85
2021/04/03 08:46:16;;;;;;;23.30;4.38;;;9.50;96.60;;;;;;5034869;28;20043;-87
2021/04/03 08:48:47;;;;;;;12.40;2.97;;;9.50;96.40;;;;;;5034678;28;20080;-87
2021/04/03 08:51:13;;;;;;;15.55;3.88;;;9.30;96.60;;;;;;5034610;28;20085;-87
2021/04/03 08:53:46;;;;;;;11.77;2.80;;;9.20;96.70;;;;;;5034354;28;20076;-87
2021/04/03 08:56:25;;;;;;;12.05;2.72;;;9.20;96.70;;;;;;5052435;28;20013;-86
2021/04/03 08:58:52;;;;;;;16.27;3.95;;;9.20;96.70;;;;;;5034995;28;20079;-88
2021/04/03 09:01:19;;;;;;;12.25;3.58;;;9.20;96.80;;;;;;5050987;28;20017;-87
2021/04/03 09:03:49;;;;;;;17.15;3.80;;;9.30;96.60;;;;;;5025369;28;20719;-88
2021/04/03 09:06:14;;;;;;;13.65;2.72;;;9.40;96.50;;;;;;5027314;28;20491;-87
2021/04/03 09:08:40;;;;;;;18.00;3.28;;;9.50;96.20;;;;;;5027332;28;20164;-86
2021/04/03 09:11:06;;;;;;;20.95;4.15;;;9.60;96.30;;;;;;5028377;28;20028;-86
2021/04/03 09:13:43;;;;;;;18.75;3.95;;;9.60;95.80;;;;;;5032603;28;20048;-87
2021/04/03 09:16:15;;;;;;;18.02;3.33;;;9.70;95.80;;;;;;5033378;28;20035;-88
2021/04/03 09:18:43;;;;;;;15.25;3.88;;;9.80;95.80;;;;;;5052053;28;20032;-87
2021/04/03 09:21:29;;;;;;;13.07;3.55;;;10.20;95.60;;;;;;5051330;28;20160;-88
2021/04/03 09:23:54;;;;;;;12.48;3.13;;;10.50;95.20;;;;;;5033731;28;20076;-87
2021/04/03 09:26:31;;;;;;;12.48;2.80;;;10.60;95.00;;;;;;5034023;28;20064;-86
2021/04/03 09:29:08;;;;;;;11.18;2.80;;;10.70;94.80;;;;;;5051426;28;20067;-87
2021/04/03 09:31:44;;;;;;;19.45;3.60;;;10.80;94.90;;;;;;5033222;28;20041;-86
2021/04/03 09:34:14;;;;;;;14.25;3.33;;;11.10;94.60;;;;;;5035048;28;20402;-89
2021/04/03 09:36:45;;;;;;;11.43;2.80;;;11.10;94.60;;;;;;5034817;28;20021;-88
2021/04/03 09:39:19;;;;;;;14.85;3.22;;;11.30;94.20;;;;;;5015737;28;20477;-85
2021/04/03 09:41:47;;;;;;;14.02;3.60;;;11.30;93.80;;;;;;5014545;28;20021;-89
2021/04/03 09:44:13;;;;;;;15.43;3.47;;;11.30;93.50;;;;;;5014737;28;20029;-89
2021/04/03 09:46:41;;;;;;;14.55;2.70;;;11.20;92.80;;;;;;5028681;28;20021;-87
2021/04/03 09:49:09;;;;;;;12.35;3.35;;;11.10;93.30;;;;;;5036234;28;20037;-88
2021/04/03 09:51:34;;;;;;;11.85;2.72;;;11.40;93.30;;;;;;5028886;28;20050;-88
2021/04/03 09:54:00;;;;;;;13.70;3.13;;;12.00;93.10;;;;;;5021875;28;20033;-89
2021/04/03 09:56:26;;;;;;;13.85;3.33;;;12.30;92.30;;;;;;5032457;28;20100;-89
2021/04/03 09:58:53;;;;;;;15.85;4.13;;;12.30;92.00;;;;;;5021946;28;20034;-87
2021/04/03 10:01:19;;;;;;;10.90;2.83;;;12.10;91.90;;;;;;5023342;28;20047;-87
2021/04/03 10:03:44;;;;;;;12.18;2.60;;;12.60;92.20;;;;;;5043116;28;20022;-88
2021/04/03 10:06:10;;;;;;;10.13;2.30;;;13.50;92.20;;;;;;5041467;28;20021;-89
2021/04/03 10:08:35;;;;;;;13.75;3.40;;;14.90;91.20;;;;;;5011901;28;20024;-86
2021/04/03 10:11:02;;;;;;;10.18;2.67;;;15.30;90.00;;;;;;5023687;28;20108;-89
2021/04/03 10:13:27;;;;;;;13.73;2.85;;;14.90;88.60;;;;;;5013500;28;20054;-87
2021/04/03 10:15:53;;;;;;;12.93;3.03;;;14.60;89.10;;;;;;5011797;28;20022;-87
2021/04/03 10:18:19;;;;;;;13.10;3.40;;;14.90;89.40;;;;;;5012291;28;20493;-85
2021/04/03 10:20:44;;;;;;;11.85;2.60;;;15.90;86.50;;;;;;5031028;28;20032;-86
2021/04/03 10:23:10;;;;;;;12.82;3.17;;;16.20;85.10;;;;;;5012992;28;20018;-86
2021/04/03 10:25:36;;;;;;;13.82;3.25;;;16.10;82.70;;;;;;5031118;28;20021;-87
2021/04/03 10:28:02;;;;;;;15.25;3.25;;;15.40;81.50;;;;;;5013785;28;20013;-87
2021/04/03 10:30:28;;;;;;;10.68;2.90;;;14.80;82.60;;;;;;5013400;28;20038;-87
2021/04/03 10:32:53;;;;;;;13.30;3.38;;;14.30;83.80;;;;;;5029845;28;20045;-85
2021/04/03 10:35:45;;;;;;;12.20;2.60;;;13.90;85.00;;;;;;5119810;27;20322;-85
2021/04/03 10:38:11;;;;;;;13.70;2.78;;;13.50;85.90;;;;;;5098228;28;20111;-86
2021/04/03 10:40:36;;;;;;;12.68;3.38;;;13.40;86.80;;;;;;5089347;28;20024;-86
2021/04/03 10:43:02;;;;;;;13.60;2.95;;;13.60;86.40;;;;;;5088176;28;20093;-88
2021/04/03 10:45:27;;;;;;;14.48;2.90;;;13.40;86.10;;;;;;5088131;28;20027;-88
2021/04/03 10:47:53;;;;;;;8.63;3.00;;;13.80;86.90;;;;;;5089386;28;20030;-90
2021/04/03 10:50:19;;;;;;;11.80;3.38;;;15.10;85.40;;;;;;5087821;28;20050;-88
2021/04/03 10:52:47;;;;;;;15.98;4.30;;;16.30;82.10;;;;;;5089017;28;20409;-91
2021/04/03 10:55:17;;;;;;;12.90;3.53;;;16.30;79.90;;;;;;5089136;28;20452;-87
2021/04/03 10:57:42;;;;;;;11.85;2.75;;;15.60;79.30;;;;;;5089158;28;20107;-88
2021/04/03 11:00:09;;;;;;;11.48;2.50;;;14.90;80.60;;;;;;5088660;28;20405;-85
2021/04/03 11:02:35;;;;;;;13.80;3.08;;;14.50;81.80;;;;;;5091026;28;20020;-91
2021/04/03 11:05:04;;;;;;;11.82;2.65;;;14.70;81.60;;;;;;5091019;28;20101;-89
2021/04/03 11:07:31;;;;;;;9.93;3.17;;;15.00;80.40;;;;;;5089996;28;20021;-90
2021/04/03 11:10:12;;;;;;;8.30;2.75;;;14.90;80.20;;;;;;5096777;28;20138;-92
2021/04/03 11:12:44;;;;;;;9.60;2.42;;;15.60;80.70;;;;;;5110074;28;20388;-91
2021/04/03 11:15:13;;;;;;;14.88;3.45;;;16.80;79.10;;;;;;5110265;28;20066;-92
2021/04/03 11:17:39;;;;;;;9.18;3.03;;;17.60;75.30;;;;;;5097832;28;20035;-92
2021/04/03 11:20:16;;;;;;;8.20;2.58;;;17.20;74.90;;;;;;5089677;28;20020;-94
2021/04/03 11:22:42;;;;;;;14.00;3.13;;;16.50;75.90;;;;;;5089658;28;20047;-91
2021/04/03 11:25:08;;;;;;;10.43;2.60;;;16.30;76.30;;;;;;5088416;28;20083;-90
2021/04/03 11:27:37;;;;;;;10.45;2.72;;;16.90;76.00;;;;;;5090071;28;20025;-94
2021/04/03 11:30:13;;;;;;;9.45;2.45;;;17.90;74.60;;;;;;5089805;28;20024;-89
2021/04/03 11:32:50;;;;;;;9.70;2.75;;;18.00;72.70;;;;;;5089648;28;20389;-93
2021/04/03 11:35:18;;;;;;;8.50;2.40;;;17.50;72.50;;;;;;5090240;28;20056;-92
2021/04/03 11:37:45;;;;;;;9.73;2.70;;;17.70;72.80;;;;;;5087781;28;20080;-88
2021/04/03 11:40:15;;;;;;;9.48;3.13;;;18.10;72.30;;;;;;5089890;28;20111;-92
2021/04/03 11:42:41;;;;;;;12.23;3.15;;;18.60;70.10;;;;;;5090797;28;20099;-89
2021/04/03 11:45:09;;;;;;;9.30;2.42;;;19.00;68.30;;;;;;5077373;28;20632;-88
2021/04/03 11:47:36;;;;;;;11.30;2.88;;;18.70;66.50;;;;;;5062021;28;20033;-88
2021/04/03 11:50:04;;;;;;;10.02;2.78;;;18.20;68.10;;;;;;5086091;28;20032;-87
2021/04/03 11:52:32;;;;;;;10.70;2.63;;;18.60;68.10;;;;;;5065533;28;20048;-88
2021/04/03 11:54:58;;;;;;;8.52;2.45;;;19.20;66.30;;;;;;5068533;28;20032;-87
2021/04/03 11:57:23;;;;;;;10.75;2.85;;;20.00;65.80;;;;;;5075064;28;20029;-86
2021/04/03 11:59:49;;;;;;;9.15;2.63;;;20.50;64.10;;;;;;5072737;28;20457;-87
2021/04/03 12:02:16;;;;;;;11.73;2.97;;;20.80;62.50;;;;;;5078425;28;20039;-86
2021/04/03 12:04:41;;;;;;;11.00;2.55;;;20.70;60.80;;;;;;5054626;28;20028;-85
2021/04/03 12:07:07;;;;;;;12.35;3.20;;;20.10;60.70;;;;;;5069700;28;20038;-85
2021/04/03 12:09:33;;;;;;;7.50;2.55;;;19.20;61.80;;;;;;5084440;28;20129;-85
2021/04/03 12:11:59;;;;;;;6.97;2.58;;;18.50;62.00;;;;;;5073799;28;20020;-85
2021/04/03 12:14:24;;;;;;;9.60;2.78;;;18.40;63.60;;;;;;5067141;28;20044;-84
2021/04/03 12:16:50;;;;;;;8.75;2.53;;;19.20;62.70;;;;;;5084315;28;20027;-86
2021/04/03 12:19:16;;;;;;;11.82;2.92;;;20.00;61.90;;;;;;5071791;28;20032;-88
2021/04/03 12:21:41;;;;;;;14.20;3.75;;;20.60;60.00;;;;;;5068358;28;20060;-87
2021/04/03 12:24:08;;;;;;;8.18;2.97;;;20.90;58.20;;;;;;5072283;28;20036;-85
2021/04/03 12:26:33;;;;;;;12.05;3.08;;;21.00;57.90;;;;;;5078990;28;20020;-85
2021/04/03 12:28:59;;;;;;;10.30;3.00;;;21.20;57.30;;;;;;5079297;28;20028;-85
2021/04/03 12:31:25;;;;;;;8.90;3.20;;;21.40;57.10;;;;;;5085037;28;20032;-84
2021/04/03 12:33:50;;;;;;;10.68;2.88;;;21.40;55.80;;;;;;5078556;28;20052;-82
2021/04/03 12:36:17;;;;;;;9.50;3.05;;;21.40;55.70;;;;;;5068036;28;20021;-84
2021/04/03 12:38:43;;;;;;;13.90;3.53;;;21.80;55.70;;;;;;5069219;28;20028;-84
2021/04/03 12:41:09;;;;;;;11.18;3.15;;;22.10;54.50;;;;;;5069495;28;20490;-86
2021/04/03 12:43:36;;;;;;;10.15;2.70;;;22.00;54.20;;;;;;5068607;28;20134;-86
2021/04/03 12:46:02;;;;;;;10.82;2.92;;;21.10;54.40;;;;;;5070342;28;20119;-86
2021/04/03 12:48:27;;;;;;;12.00;3.17;;;20.40;55.50;;;;;;5076895;28;20530;-82
2021/04/03 12:50:53;;;;;;;12.30;2.88;;;19.50;56.50;;;;;;5072523;28;20046;-84
2021/04/03 12:53:19;;;;;;;8.50;2.67;;;18.60;57.80;;;;;;5072259;28;20032;-85